Time;durP1;ratioP1;P1;durP2;ratioP2;P2;SDS_P1;SDS_P2;PMS_P1;PMS_P2;Temp;Humidity;BMP_temperature;BMP_pressure;BME280_temperature;BME280_humidity;BME280_pressure;Samples;Min_cycle;Max_cycle;Signal;HPM_P1;HPM_P2
2022/09/08 00:01:52;;;;;;;5.90;3.80;;;;;;;9.15;65.46;100263.18;130434;1268;108880;-75
2022/09/08 00:04:58;;;;;;;6.50;4.10;;;;;;;9.22;65.55;100259.34;130400;1267;108975;-76
2022/09/08 00:08:04;;;;;;;6.10;4.10;;;;;;;9.26;65.26;100253.63;130511;1268;108599;-75
2022/09/08 00:11:11;;;;;;;6.10;3.80;;;;;;;9.30;65.42;100252.41;130518;1266;108848;-76
2022/09/08 00:14:17;;;;;;;5.90;3.60;;;;;;;9.30;65.39;100261.49;130468;1267;108984;-76
2022/09/08 00:17:22;;;;;;;5.30;3.60;;;;;;;9.28;65.42;100268.60;130436;1267;108945;-76
2022/09/08 00:20:28;;;;;;;5.40;3.50;;;;;;;9.23;65.52;100269.59;129306;1266;1578987;-76
2022/09/08 00:23:34;;;;;;;6.40;4.20;;;;;;;9.18;65.58;100271.05;130478;1267;109155;-75
2022/09/08 00:26:39;;;;;;;5.80;3.80;;;;;;;9.14;65.43;100276.08;130465;1268;107673;-75
2022/09/08 00:29:45;;;;;;;5.70;3.50;;;;;;;9.07;65.65;100275.52;130437;1268;108767;-75
2022/09/08 00:32:50;;;;;;;5.80;4.00;;;;;;;9.01;65.72;100273.71;130544;1268;108921;-74
2022/09/08 00:35:56;;;;;;;5.00;3.70;;;;;;;9.00;65.78;100267.11;130512;1267;108772;-75
2022/09/08 00:39:02;;;;;;;6.20;3.60;;;;;;;9.01;65.83;100266.08;130529;1268;107847;-75
2022/09/08 00:42:07;;;;;;;7.40;3.30;;;;;;;8.99;65.87;100266.44;130416;1268;107704;-76
2022/09/08 00:45:17;;;;;;;5.80;3.50;;;;;;;8.98;65.88;100266.95;130366;1268;108769;-76
2022/09/08 00:48:23;;;;;;;4.90;3.20;;;;;;;8.98;65.99;100256.48;130456;1267;107666;-75
2022/09/08 00:51:30;;;;;;;6.10;3.50;;;;;;;9.01;66.11;100253.65;130561;1268;108844;-75
2022/09/08 00:54:37;;;;;;;5.30;3.30;;;;;;;9.03;66.09;100254.14;130530;1268;108717;-74
2022/09/08 00:57:43;;;;;;;6.30;3.80;;;;;;;9.01;66.18;100252.82;130546;1268;108717;-74
2022/09/08 01:00:49;;;;;;;7.10;3.60;;;;;;;9.00;66.25;100244.39;130442;1267;108711;-74
2022/09/08 01:03:55;;;;;;;5.30;3.30;;;;;;;8.99;66.34;100246.60;130500;1267;108845;-74
2022/09/08 01:14:11;;;;;;;6.60;3.60;;;;;;;8.89;66.47;100233.17;130564;1266;108753;-74
2022/09/08 01:17:20;;;;;;;6.10;3.50;;;;;;;8.87;66.41;100234.94;130345;1268;108018;-75
2022/09/08 01:20:35;;;;;;;5.70;3.70;;;;;;;8.83;66.66;100237.23;130404;1267;107590;-75
2022/09/08 01:24:19;;;;;;;7.10;4.10;;;;;;;8.81;66.61;100238.17;130283;1267;108750;-74
2022/09/08 01:27:28;;;;;;;5.20;3.10;;;;;;;8.76;66.74;100232.78;130140;1267;108798;-76
2022/09/08 01:30:35;;;;;;;6.50;3.50;;;;;;;8.75;66.78;100237.42;130393;1268;108637;-76
2022/09/08 01:33:42;;;;;;;5.10;3.10;;;;;;;8.74;66.67;100239.70;130391;1267;109807;-76
2022/09/08 01:36:47;;;;;;;6.40;3.80;;;;;;;8.74;66.88;100240.62;130426;1267;108794;-76
2022/09/08 01:39:52;;;;;;;5.10;3.40;;;;;;;8.78;66.80;100237.50;130503;1267;108985;-75
2022/09/08 01:42:58;;;;;;;6.00;3.70;;;;;;;8.82;66.79;100236.44;130402;1267;109186;-76
2022/09/08 01:46:03;;;;;;;5.30;3.80;;;;;;;8.83;66.89;100240.77;130399;1267;108693;-75
2022/09/08 01:49:09;;;;;;;6.20;4.00;;;;;;;8.84;66.90;100240.85;130425;1267;108825;-76
2022/09/08 01:52:14;;;;;;;6.10;3.90;;;;;;;8.82;66.81;100237.30;130404;1267;108666;-76
2022/09/08 01:55:20;;;;;;;6.80;4.00;;;;;;;8.79;66.77;100247.16;130365;1267;108735;-76
2022/09/08 01:58:26;;;;;;;6.00;3.80;;;;;;;8.75;66.96;100255.91;130451;1267;108644;-76
2022/09/08 02:01:31;;;;;;;5.30;3.70;;;;;;;8.71;66.88;100254.37;130428;1266;108816;-75
2022/09/08 02:04:37;;;;;;;5.80;3.70;;;;;;;8.66;67.10;100249.98;130432;1267;108809;-75
2022/09/08 02:07:43;;;;;;;6.70;3.90;;;;;;;8.65;66.94;100253.60;130489;1267;108781;-75
2022/09/08 02:10:55;;;;;;;7.60;3.80;;;;;;;8.63;66.90;100254.71;130463;1266;108933;-75
2022/09/08 02:14:01;;;;;;;6.40;3.80;;;;;;;8.57;67.10;100261.58;130462;1267;108756;-75
2022/09/08 02:17:07;;;;;;;6.00;3.60;;;;;;;8.52;67.19;100260.67;130419;1267;107679;-75
2022/09/08 02:20:15;;;;;;;6.10;3.00;;;;;;;8.51;67.23;100254.52;130427;1267;109007;-76
2022/09/08 02:23:20;;;;;;;6.20;3.80;;;;;;;8.53;67.27;100247.48;130445;1267;107696;-76
2022/09/08 02:26:28;;;;;;;6.30;3.40;;;;;;;8.54;67.28;100239.60;130346;1267;108871;-76
2022/09/08 02:29:33;;;;;;;5.70;3.50;;;;;;;8.54;67.14;100239.70;130365;1267;108988;-76
2022/09/08 02:32:39;;;;;;;5.90;3.50;;;;;;;8.53;67.54;100237.50;130340;1267;108857;-75
2022/09/08 02:35:45;;;;;;;6.30;3.70;;;;;;;8.54;67.25;100239.76;130425;1267;108044;-76
2022/09/08 02:38:53;;;;;;;6.70;3.90;;;;;;;8.54;67.36;100237.23;130472;1267;108756;-77
2022/09/08 02:41:59;;;;;;;5.80;3.40;;;;;;;8.52;67.39;100236.74;130356;1267;108965;-77
2022/09/08 02:45:05;;;;;;;6.00;3.70;;;;;;;8.49;67.44;100233.46;130329;1267;108797;-75
2022/09/08 02:48:10;;;;;;;6.40;4.00;;;;;;;8.48;67.52;100223.14;130409;1267;108856;-75
2022/09/08 02:51:18;;;;;;;5.30;3.80;;;;;;;8.44;67.57;100228.38;130392;1267;108717;-77
2022/09/08 02:54:24;;;;;;;4.40;3.40;;;;;;;8.41;67.58;100229.05;130357;1267;108487;-74
2022/09/08 02:57:30;;;;;;;6.00;3.50;;;;;;;8.37;67.64;100229.33;130399;1267;108404;-76
2022/09/08 03:00:36;;;;;;;5.80;3.50;;;;;;;8.35;67.73;100227.80;130402;1267;108682;-77
2022/09/08 03:03:42;;;;;;;6.00;3.60;;;;;;;8.33;67.88;100228.80;130467;1268;108719;-82
2022/09/08 03:06:47;;;;;;;4.60;3.40;;;;;;;8.34;67.79;100232.31;130489;1267;108972;-85
2022/09/08 03:09:53;;;;;;;5.40;3.70;;;;;;;8.38;67.83;100224.48;130695;1267;108832;-82
2022/09/08 03:12:59;;;;;;;5.60;3.50;;;;;;;8.41;67.68;100226.02;130598;1266;108761;-83
2022/09/08 03:16:06;;;;;;;7.30;3.70;;;;;;;8.41;67.89;100222.81;130579;1268;108762;-82
2022/09/08 03:19:11;;;;;;;5.70;3.70;;;;;;;8.41;67.68;100228.66;130726;1267;108581;-82
2022/09/08 03:22:17;;;;;;;6.30;3.90;;;;;;;8.39;67.78;100227.55;130689;1268;108618;-82
2022/09/08 03:25:22;;;;;;;5.60;3.70;;;;;;;8.36;67.85;100225.40;130536;1266;108943;-82
2022/09/08 03:28:28;;;;;;;6.00;3.80;;;;;;;8.36;68.06;100229.85;130582;1268;108838;-83
2022/09/08 03:31:35;;;;;;;5.80;3.50;;;;;;;8.33;68.06;100219.44;130499;1267;109172;-83
2022/09/08 03:34:41;;;;;;;5.80;4.10;;;;;;;8.31;68.22;100213.97;130615;1267;109703;-84
2022/09/08 03:37:49;;;;;;;6.30;4.10;;;;;;;8.29;68.29;100208.83;130561;1266;110205;-75
2022/09/08 03:40:55;;;;;;;6.10;3.50;;;;;;;8.26;68.41;100205.34;130435;1268;108487;-75
2022/09/08 03:44:00;;;;;;;7.20;3.60;;;;;;;8.24;68.27;100206.23;130470;1267;108920;-75
2022/09/08 03:47:06;;;;;;;4.60;3.50;;;;;;;8.25;68.33;100203.31;130452;1267;108844;-76
2022/09/08 03:50:13;;;;;;;6.10;4.10;;;;;;;8.30;68.36;100201.48;130380;1268;108647;-79
2022/09/08 03:53:18;;;;;;;6.70;3.80;;;;;;;8.34;68.49;100193.83;130468;1267;108788;-74
2022/09/08 03:56:23;;;;;;;5.80;3.70;;;;;;;8.38;68.45;100193.30;130511;1268;107583;-77
2022/09/08 03:59:29;;;;;;;5.40;4.00;;;;;;;8.39;68.54;100184.17;130482;1267;108638;-75
2022/09/08 04:02:35;;;;;;;6.30;4.00;;;;;;;8.38;68.41;100179.27;130591;1266;108593;-74
2022/09/08 04:05:41;;;;;;;7.20;3.80;;;;;;;8.36;68.40;100186.41;130447;1268;108551;-74
2022/09/08 04:08:46;;;;;;;5.30;3.80;;;;;;;8.32;68.37;100183.61;130452;1266;108683;-74
2022/09/08 04:11:52;;;;;;;7.10;4.50;;;;;;;8.29;68.52;100185.27;130364;1266;108798;-75
2022/09/08 04:14:57;;;;;;;6.00;4.20;;;;;;;8.29;68.65;100189.72;130421;1268;108823;-76
2022/09/08 04:18:03;;;;;;;6.20;3.90;;;;;;;8.26;68.91;100192.45;130207;1267;108879;-75
2022/09/08 04:21:10;;;;;;;6.30;3.80;;;;;;;8.26;68.87;100196.36;130521;1266;108843;-76
2022/09/08 04:24:16;;;;;;;6.80;4.60;;;;;;;8.26;68.69;100203.95;130548;1267;107568;-76
2022/09/08 04:27:22;;;;;;;8.40;4.00;;;;;;;8.27;68.77;100211.84;130481;1268;109259;-74
2022/09/08 04:30:27;;;;;;;6.30;4.10;;;;;;;8.32;68.75;100209.80;130506;1268;107654;-74
2022/09/08 04:33:35;;;;;;;6.60;3.90;;;;;;;8.44;68.71;100211.40;130486;1268;107251;-75
2022/09/08 04:36:41;;;;;;;6.90;4.20;;;;;;;8.57;68.82;100210.36;130513;1268;108907;-75
2022/09/08 04:39:48;;;;;;;6.50;3.90;;;;;;;8.66;68.92;100203.19;130469;1268;108847;-75
2022/09/08 04:42:53;;;;;;;5.90;4.00;;;;;;;8.74;68.85;100202.80;130483;1267;108959;-75
2022/09/08 04:46:03;;;;;;;6.20;4.20;;;;;;;8.84;69.02;100202.98;130397;1268;108902;-74
2022/09/08 04:49:08;;;;;;;6.10;4.00;;;;;;;8.95;69.14;100209.02;130463;1267;108859;-74
2022/09/08 04:52:13;;;;;;;6.60;4.40;;;;;;;9.09;69.03;100205.41;130460;1267;109145;-74
2022/09/08 04:55:19;;;;;;;6.90;4.20;;;;;;;9.23;68.97;100197.36;130542;1268;109014;-74
2022/09/08 04:58:25;;;;;;;7.60;5.00;;;;;;;9.37;69.00;100201.48;130452;1268;107825;-75
2022/09/08 05:01:32;;;;;;;6.80;4.70;;;;;;;9.51;69.01;100203.92;130359;1268;108703;-74
2022/09/08 05:04:38;;;;;;;7.30;4.50;;;;;;;9.67;68.84;100205.38;130409;1268;108573;-74
2022/09/08 05:07:43;;;;;;;7.50;4.60;;;;;;;9.85;68.61;100203.11;130531;1266;108799;-76
2022/09/08 05:10:53;;;;;;;6.60;4.30;;;;;;;10.08;68.68;100199.96;130453;1267;108790;-75
2022/09/08 05:13:59;;;;;;;8.60;4.50;;;;;;;10.33;68.36;100205.36;130422;1268;108708;-75
2022/09/08 05:17:05;;;;;;;8.50;5.10;;;;;;;10.54;68.11;100201.41;130440;1268;108749;-74
2022/09/08 05:20:11;;;;;;;7.90;4.60;;;;;;;10.74;68.01;100198.17;130439;1267;108662;-74
2022/09/08 05:23:17;;;;;;;9.70;5.00;;;;;;;10.89;67.58;100193.88;130404;1268;107460;-75
2022/09/08 05:26:24;;;;;;;9.20;5.10;;;;;;;11.02;67.56;100198.98;130434;1267;108719;-74
2022/09/08 05:29:29;;;;;;;8.70;5.10;;;;;;;11.13;66.98;100191.42;130405;1267;108782;-74
2022/09/08 05:32:36;;;;;;;8.90;5.00;;;;;;;11.23;66.78;100179.32;130539;1267;108814;-73
2022/09/08 05:35:41;;;;;;;7.20;4.70;;;;;;;11.32;66.59;100181.92;130530;1268;108992;-73
2022/09/08 05:38:47;;;;;;;10.60;5.30;;;;;;;11.41;66.91;100184.91;130470;1268;109771;-74
2022/09/08 05:41:53;;;;;;;8.10;4.80;;;;;;;11.51;66.74;100195.14;130475;1267;109798;-73
2022/09/08 05:44:58;;;;;;;6.60;4.20;;;;;;;11.59;66.68;100200.13;130433;1266;107848;-73
2022/09/08 05:48:04;;;;;;;7.20;4.40;;;;;;;11.69;66.36;100206.24;130409;1268;108575;-73
2022/09/08 05:51:17;;;;;;;7.10;4.30;;;;;;;11.78;66.34;100203.98;130454;1266;107696;-73
2022/09/08 05:54:24;;;;;;;7.00;4.50;;;;;;;11.88;66.03;100198.70;130552;1267;107290;-73
2022/09/08 05:57:31;;;;;;;6.50;4.30;;;;;;;11.98;65.82;100201.81;130398;1268;107453;-73
2022/09/08 06:00:37;;;;;;;6.70;4.30;;;;;;;12.06;65.78;100204.44;130473;1268;109290;-73
2022/09/08 06:03:43;;;;;;;8.00;4.40;;;;;;;12.14;65.55;100204.55;130393;1266;109767;-72
2022/09/08 06:06:48;;;;;;;6.90;4.30;;;;;;;12.22;65.33;100207.41;130379;1266;108736;-73
2022/09/08 06:09:53;;;;;;;5.60;3.90;;;;;;;12.31;65.50;100208.76;130442;1267;108645;-73
2022/09/08 06:12:59;;;;;;;9.50;5.00;;;;;;;12.42;65.52;100208.50;130466;1268;108693;-73
2022/09/08 06:16:07;;;;;;;7.50;5.60;;;;;;;12.53;65.27;100212.11;130473;1266;107631;-73
2022/09/08 06:19:12;;;;;;;6.80;4.20;;;;;;;12.65;65.22;100208.14;130428;1267;108756;-73
2022/09/08 06:22:17;;;;;;;8.00;4.60;;;;;;;12.77;65.04;100204.45;130487;1267;108660;-73
2022/09/08 06:25:23;;;;;;;7.30;4.80;;;;;;;12.89;64.64;100203.66;130475;1266;108015;-73
2022/09/08 06:28:34;;;;;;;7.60;4.30;;;;;;;13.00;64.72;100206.40;130441;1267;108526;-73
2022/09/08 06:37:01;;;;;;;7.80;3.70;;;;;;;13.24;63.99;100200.93;129816;1273;109804;-73
2022/09/08 06:40:15;;;;;;;6.00;4.20;;;;;;;13.32;63.64;100198.41;129841;1273;107381;-73
2022/09/08 06:43:25;;;;;;;7.40;4.10;;;;;;;13.40;63.38;100202.41;129896;1272;109004;-73
2022/09/08 06:46:33;;;;;;;8.50;4.80;;;;;;;13.46;63.41;100208.95;129889;1273;108893;-73
2022/09/08 06:49:39;;;;;;;7.70;4.20;;;;;;;13.56;63.46;100218.98;129911;1273;108758;-73
2022/09/08 06:52:48;;;;;;;6.40;4.00;;;;;;;13.67;63.44;100220.56;129943;1273;108699;-75
2022/09/08 06:56:02;;;;;;;7.30;4.30;;;;;;;13.79;63.18;100223.20;129858;1273;108614;-73
2022/09/08 06:59:20;;;;;;;11.10;5.80;;;;;;;13.89;63.07;100213.25;129927;1273;108817;-72
2022/09/08 07:02:39;;;;;;;6.20;4.10;;;;;;;14.00;62.69;100205.96;129930;1273;108939;-72
2022/09/08 07:05:58;;;;;;;7.00;4.00;;;;;;;14.09;62.55;100195.58;129894;1273;108656;-72
2022/09/08 07:09:12;;;;;;;5.40;3.90;;;;;;;14.19;62.46;100194.64;129853;1273;108888;-73
2022/09/08 07:12:32;;;;;;;7.50;4.00;;;;;;;14.29;61.79;100192.60;129922;1272;108874;-73
2022/09/08 07:15:57;;;;;;;6.10;4.20;;;;;;;14.39;61.37;100194.60;129907;1273;108604;-73
2022/09/08 07:19:10;;;;;;;6.20;4.00;;;;;;;14.50;61.52;100200.15;129824;1273;107742;-72
2022/09/08 07:22:28;;;;;;;6.70;3.90;;;;;;;14.61;61.86;100206.98;129891;1273;108763;-73
2022/09/08 07:25:41;;;;;;;6.20;4.00;;;;;;;14.73;61.19;100215.08;130042;1272;108909;-73
2022/09/08 07:28:51;;;;;;;7.30;3.90;;;;;;;14.83;61.29;100225.23;129886;1273;108173;-73
2022/09/08 07:31:57;;;;;;;6.70;3.40;;;;;;;14.92;61.09;100235.55;129905;1273;108913;-74
2022/09/08 07:35:06;;;;;;;6.10;3.70;;;;;;;15.00;60.87;100238.49;129888;1271;107740;-73
2022/09/08 07:38:16;;;;;;;8.30;4.00;;;;;;;15.09;60.73;100237.23;130039;1271;108899;-73
2022/09/08 07:41:26;;;;;;;6.00;3.80;;;;;;;15.13;59.90;100235.02;130003;1271;108862;-73
2022/09/08 07:44:33;;;;;;;7.50;3.50;;;;;;;15.13;59.28;100239.69;129969;1271;109850;-73
2022/09/08 07:47:51;;;;;;;10.90;8.90;;;;;;;15.17;58.83;100232.54;129989;1271;108662;-73
2022/09/08 07:51:06;;;;;;;7.50;4.30;;;;;;;15.27;58.98;100222.56;130054;1271;108785;-75
2022/09/08 07:54:28;;;;;;;7.10;4.10;;;;;;;15.39;58.52;100214.50;129903;1271;108738;-73
2022/09/08 07:57:48;;;;;;;7.00;4.00;;;;;;;15.51;58.74;100213.89;130011;1271;108628;-72
2022/09/08 08:00:58;;;;;;;8.30;4.00;;;;;;;15.65;58.04;100216.21;129913;1271;108712;-73
2022/09/08 08:04:15;;;;;;;7.20;3.50;;;;;;;15.79;57.35;100211.70;129964;1271;107741;-73
2022/09/08 08:07:28;;;;;;;5.70;3.50;;;;;;;15.94;58.39;100211.05;129886;1271;108740;-72
2022/09/08 08:10:40;;;;;;;8.40;3.40;;;;;;;16.05;57.70;100199.44;130014;1271;108897;-73
2022/09/08 08:14:01;;;;;;;6.10;3.60;;;;;;;16.14;57.22;100202.88;129904;1271;108973;-74
2022/09/08 08:17:23;;;;;;;4.40;3.20;;;;;;;16.21;56.86;100201.87;129916;1271;109030;-72
2022/09/08 08:20:46;;;;;;;6.20;3.40;;;;;;;16.27;57.05;100199.03;129939;1271;108710;-72
2022/09/08 08:24:01;;;;;;;7.40;3.80;;;;;;;16.39;57.34;100196.91;129993;1271;108843;-72
2022/09/08 08:27:18;;;;;;;5.30;3.40;;;;;;;16.48;57.14;100191.08;130007;1271;108617;-74
2022/09/08 08:30:25;;;;;;;4.50;3.00;;;;;;;16.57;56.32;100181.16;129866;1271;108744;-73
2022/09/08 08:33:36;;;;;;;6.70;3.90;;;;;;;16.64;56.48;100170.77;129913;1271;108682;-74
2022/09/08 08:36:46;;;;;;;6.60;3.20;;;;;;;16.73;56.14;100159.41;129864;1271;108833;-73
2022/09/08 08:39:53;;;;;;;9.10;3.60;;;;;;;16.83;55.80;100155.20;129937;1273;108858;-74
2022/09/08 08:43:23;;;;;;;5.90;3.10;;;;;;;16.91;54.39;100154.41;129948;1273;108734;-74
2022/09/08 08:46:45;;;;;;;5.80;3.20;;;;;;;17.01;54.94;100149.55;130053;1273;108749;-74
2022/09/08 08:50:17;;;;;;;5.50;3.20;;;;;;;17.13;54.96;100152.26;129959;1273;108908;-74
2022/09/08 08:53:38;;;;;;;7.40;3.10;;;;;;;17.28;55.03;100144.62;129976;1273;108757;-76
2022/09/08 08:56:49;;;;;;;5.40;3.00;;;;;;;17.41;54.53;100144.71;129888;1273;108884;-75
2022/09/08 09:00:24;;;;;;;4.90;3.20;;;;;;;17.50;54.22;100140.84;129975;1271;108540;-74
2022/09/08 09:03:46;;;;;;;6.20;3.30;;;;;;;17.60;53.70;100140.81;129922;1273;107662;-72
2022/09/08 09:07:25;;;;;;;6.30;3.20;;;;;;;17.70;53.21;100143.86;129940;1273;109593;-73
2022/09/08 09:10:49;;;;;;;7.40;3.20;;;;;;;17.79;53.47;100147.64;129883;1273;108595;-75
2022/09/08 09:14:21;;;;;;;7.30;3.10;;;;;;;17.90;53.27;100151.31;130008;1273;109046;-74
2022/09/08 09:17:56;;;;;;;5.10;3.40;;;;;;;18.04;52.90;100155.16;129970;1273;108998;-74
2022/09/08 09:21:06;;;;;;;6.80;3.40;;;;;;;18.18;52.70;100160.68;129669;1273;108765;-73
2022/09/08 09:24:23;;;;;;;5.70;3.30;;;;;;;18.32;52.63;100164.89;130086;1273;108647;-73
2022/09/08 09:27:40;;;;;;;7.20;3.90;;;;;;;18.42;52.43;100161.16;129998;1273;108803;-74
2022/09/08 09:31:01;;;;;;;6.80;3.40;;;;;;;18.51;52.05;100161.55;130072;1273;107853;-74
2022/09/08 09:34:35;;;;;;;7.00;3.40;;;;;;;18.57;52.11;100161.80;129959;1273;108434;-73
2022/09/08 09:37:59;;;;;;;5.40;3.50;;;;;;;18.61;51.31;100153.35;130031;1273;108802;-75
2022/09/08 09:41:41;;;;;;;9.70;4.20;;;;;;;18.69;51.63;100158.55;129902;1273;108910;-74
2022/09/08 09:45:16;;;;;;;5.10;3.00;;;;;;;18.69;50.88;100161.66;130004;1273;107693;-73
2022/09/08 09:48:46;;;;;;;10.20;3.70;;;;;;;18.68;51.22;100158.67;129985;1273;109301;-74
2022/09/08 09:52:03;;;;;;;5.50;3.60;;;;;;;18.71;51.06;100159.51;130014;1273;108424;-74
2022/09/08 09:55:24;;;;;;;6.70;3.30;;;;;;;18.74;50.50;100160.50;130073;1273;108718;-73
2022/09/08 09:59:12;;;;;;;7.90;3.40;;;;;;;18.77;50.08;100163.23;130083;1273;108713;-73
2022/09/08 10:02:50;;;;;;;6.00;3.20;;;;;;;18.80;50.42;100154.19;129991;1273;108818;-74
2022/09/08 10:06:32;;;;;;;7.90;3.30;;;;;;;18.81;50.55;100146.47;129536;1273;108912;-74
2022/09/08 10:10:05;;;;;;;7.70;3.70;;;;;;;18.84;50.31;100144.21;129931;1273;108676;-74
2022/09/08 10:13:48;;;;;;;5.10;3.40;;;;;;;18.89;49.82;100140.96;129968;1273;108675;-74
2022/09/08 10:17:35;;;;;;;5.70;3.50;;;;;;;18.95;49.61;100138.66;130001;1273;109071;-73
2022/09/08 10:21:03;;;;;;;9.50;3.40;;;;;;;18.99;49.61;100134.95;129968;1273;108748;-73
2022/09/08 10:24:37;;;;;;;5.20;3.30;;;;;;;19.04;49.43;100132.28;130042;1273;108762;-74
2022/09/08 10:28:07;;;;;;;5.50;3.20;;;;;;;19.10;49.15;100115.83;129900;1273;108732;-74
2022/09/08 10:31:48;;;;;;;5.70;3.50;;;;;;;19.18;49.62;100111.05;130126;1273;108695;-73
2022/09/08 10:35:32;;;;;;;7.40;3.40;;;;;;;19.26;49.36;100108.02;129932;1273;108867;-73
2022/09/08 10:38:57;;;;;;;5.40;3.40;;;;;;;19.28;49.03;100110.28;129999;1270;107156;-73
2022/09/08 10:42:43;;;;;;;7.40;3.50;;;;;;;19.32;49.27;100107.39;130062;1271;108865;-73
2022/09/08 10:46:21;;;;;;;6.00;3.20;;;;;;;19.33;48.60;100113.51;129994;1271;108565;-73
2022/09/08 10:49:58;;;;;;;4.70;3.40;;;;;;;19.40;49.09;100108.73;130050;1271;108775;-73
2022/09/08 10:53:37;;;;;;;4.80;3.30;;;;;;;19.42;49.15;100109.85;130208;1271;108140;-75
2022/09/08 10:56:43;;;;;;;6.20;3.30;;;;;;;19.39;48.75;100099.91;130170;1271;108646;-75
2022/09/08 11:00:11;;;;;;;8.40;3.40;;;;;;;19.36;48.71;100095.21;130129;1271;108882;-75
2022/09/08 11:03:44;;;;;;;4.60;3.30;;;;;;;19.25;48.63;100100.01;129732;1273;109011;-74
2022/09/08 11:07:14;;;;;;;6.40;3.50;;;;;;;19.16;48.61;100100.88;129956;1273;108727;-75
2022/09/08 11:10:32;;;;;;;6.40;3.60;;;;;;;19.14;48.34;100102.09;130066;1273;108880;-75
2022/09/08 11:13:54;;;;;;;6.80;3.40;;;;;;;19.12;48.05;100097.73;129986;1273;108500;-76
2022/09/08 11:17:22;;;;;;;5.60;3.80;;;;;;;19.17;47.63;100092.05;130007;1273;107740;-76
2022/09/08 11:20:40;;;;;;;4.70;3.40;;;;;;;19.28;47.89;100090.70;130125;1271;108697;-76
2022/09/08 11:24:01;;;;;;;7.30;3.50;;;;;;;19.42;47.85;100088.66;130225;1271;107640;-76
2022/09/08 11:27:16;;;;;;;6.30;3.20;;;;;;;19.56;47.95;100081.80;130005;1271;108699;-76
2022/09/08 11:30:23;;;;;;;5.10;3.40;;;;;;;19.62;47.55;100078.56;129950;1271;108712;-76
2022/09/08 11:34:11;;;;;;;5.70;3.50;;;;;;;19.59;47.38;100072.05;130219;1271;109034;-76
2022/09/08 11:37:41;;;;;;;5.70;3.30;;;;;;;19.54;47.43;100066.83;129206;1277;109431;-76
2022/09/08 11:41:10;;;;;;;6.30;2.90;;;;;;;19.59;47.44;100063.92;129212;1277;108974;-76
2022/09/08 11:44:39;;;;;;;7.40;3.00;;;;;;;19.72;47.06;100054.79;129171;1277;106951;-75
2022/09/08 11:48:04;;;;;;;6.10;3.50;;;;;;;19.84;46.98;100051.17;130592;1277;108743;-76
2022/09/08 11:51:33;;;;;;;6.20;3.60;;;;;;;19.83;46.55;100049.81;129200;1277;108895;-75
2022/09/08 11:54:52;;;;;;;7.40;3.50;;;;;;;19.79;47.06;100050.09;129409;1272;109222;-76
2022/09/08 11:58:13;;;;;;;5.80;3.20;;;;;;;19.78;47.11;100048.93;130231;1271;108534;-75
2022/09/08 12:01:35;;;;;;;6.10;2.90;;;;;;;19.81;47.21;100040.75;130094;1271;108757;-76
2022/09/08 12:04:57;;;;;;;6.30;3.30;;;;;;;19.91;47.25;100037.14;130215;1271;107773;-75
2022/09/08 12:08:19;;;;;;;6.40;3.10;;;;;;;20.03;46.98;100036.75;130058;1271;108636;-76
2022/09/08 12:11:28;;;;;;;;;;;;;;;20.14;46.92;100033.05;130100;1271;108799;-77
2022/09/08 12:14:48;;;;;;;4.10;2.70;;;;;;;20.27;46.55;100027.50;130123;1271;108783;-76
2022/09/08 12:18:21;;;;;;;6.20;3.30;;;;;;;20.55;46.52;100023.88;130142;1271;108691;-76
2022/09/08 12:22:02;;;;;;;5.50;2.80;;;;;;;20.92;46.69;100020.84;128990;1271;1539742;-77
2022/09/08 12:25:47;;;;;;;3.90;2.90;;;;;;;21.18;45.99;100013.52;129886;1271;108999;-76
2022/09/08 12:29:15;;;;;;;4.90;3.30;;;;;;;21.28;44.63;100010.13;129895;1271;108975;-76
2022/09/08 12:32:42;;;;;;;5.90;3.50;;;;;;;21.40;45.21;100004.59;130142;1270;106588;-77
2022/09/08 12:35:53;;;;;;;6.00;3.00;;;;;;;21.53;44.34;100008.92;130115;1271;108136;-76
2022/09/08 12:39:24;;;;;;;4.30;3.10;;;;;;;21.61;44.24;100009.07;130046;1271;109252;-75
2022/09/08 12:42:49;;;;;;;7.00;3.00;;;;;;;21.69;44.36;100012.31;130130;1271;108695;-76
2022/09/08 12:46:13;;;;;;;4.50;3.30;;;;;;;21.75;44.00;100005.56;129724;1273;108788;-75
2022/09/08 12:49:38;;;;;;;4.40;2.90;;;;;;;21.84;44.47;99997.30;130052;1273;108527;-75
2022/09/08 12:53:02;;;;;;;4.40;3.20;;;;;;;21.90;43.88;99992.61;130106;1273;108755;-76
2022/09/08 12:56:15;;;;;;;5.50;3.20;;;;;;;21.90;44.36;99989.86;130036;1273;108509;-76
2022/09/08 12:59:34;;;;;;;4.90;3.00;;;;;;;21.90;44.19;99979.61;130059;1272;108725;-76
2022/09/08 13:03:01;;;;;;;5.70;3.20;;;;;;;21.87;43.97;99977.02;130144;1273;108763;-76
2022/09/08 13:06:35;;;;;;;5.90;3.30;;;;;;;21.74;43.39;99970.67;130134;1271;108749;-77
2022/09/08 13:09:51;;;;;;;7.60;3.20;;;;;;;21.65;44.25;99967.19;130172;1271;109125;-76
2022/09/08 13:13:30;;;;;;;5.50;3.30;;;;;;;21.58;43.77;99967.45;130046;1271;108878;-77
2022/09/08 13:16:44;;;;;;;5.00;3.40;;;;;;;21.47;43.85;99962.45;130151;1271;108734;-77
2022/09/08 13:20:07;;;;;;;6.40;3.30;;;;;;;21.40;43.48;99954.84;130177;1271;108650;-76
2022/09/08 13:23:24;;;;;;;7.40;3.70;;;;;;;21.33;43.67;99951.23;130139;1271;108853;-77
2022/09/08 13:26:53;;;;;;;7.00;3.40;;;;;;;21.28;43.59;99947.55;130141;1271;108197;-76
2022/09/08 13:30:08;;;;;;;6.40;3.30;;;;;;;21.24;43.69;99940.46;130171;1271;108969;-76
2022/09/08 13:33:30;;;;;;;4.80;3.40;;;;;;;21.18;43.73;99939.79;130199;1271;108724;-77
2022/09/08 13:36:50;;;;;;;8.80;4.10;;;;;;;21.15;43.53;99939.50;130175;1271;108715;-77
2022/09/08 13:40:12;;;;;;;4.90;3.40;;;;;;;21.15;43.85;99933.62;130127;1271;109123;-76
2022/09/08 13:43:44;;;;;;;7.70;4.00;;;;;;;21.16;43.64;99930.30;130053;1271;108742;-77
2022/09/08 13:47:02;;;;;;;7.20;3.50;;;;;;;21.16;43.46;99928.98;130121;1271;108829;-76
2022/09/08 13:50:20;;;;;;;6.90;4.10;;;;;;;21.16;43.64;99929.47;130133;1270;108573;-74
2022/09/08 13:53:43;;;;;;;6.20;3.60;;;;;;;21.16;43.69;99926.60;129940;1271;108862;-75
2022/09/08 13:57:08;;;;;;;5.30;3.50;;;;;;;21.14;43.44;99922.10;129968;1271;108547;-75
2022/09/08 14:00:17;;;;;;;7.10;3.20;;;;;;;21.05;43.17;99911.01;129966;1271;108876;-75
2022/09/08 14:03:24;;;;;;;8.40;3.70;;;;;;;21.00;43.37;99898.98;129983;1271;108667;-76
2022/09/08 14:06:40;;;;;;;6.30;3.60;;;;;;;20.98;43.38;99896.02;130083;1271;109032;-74
2022/09/08 14:10:13;;;;;;;4.60;3.40;;;;;;;20.96;43.58;99896.95;131445;1271;108750;-74
2022/09/08 14:13:32;;;;;;;6.50;3.80;;;;;;;20.96;43.35;99893.41;130071;1272;108678;-74
2022/09/08 14:16:38;;;;;;;4.60;3.40;;;;;;;20.96;43.06;99885.44;130348;1273;109037;-81
2022/09/08 14:19:54;;;;;;;5.60;3.60;;;;;;;20.97;43.10;99884.13;130977;1271;108758;-81
2022/09/08 14:23:23;;;;;;;7.10;3.90;;;;;;;20.98;43.35;99880.56;131878;1271;108567;-77
2022/09/08 14:26:50;;;;;;;4.70;3.30;;;;;;;21.02;43.33;99879.96;130052;1272;108781;-76
2022/09/08 14:30:04;;;;;;;4.50;3.60;;;;;;;21.07;43.42;99876.80;130031;1271;108950;-77
2022/09/08 14:33:30;;;;;;;10.40;3.90;;;;;;;21.08;43.12;99875.76;130102;1271;108714;-83
2022/09/08 14:36:54;;;;;;;5.60;3.70;;;;;;;21.06;42.88;99875.11;130137;1272;107635;-79
2022/09/08 14:40:14;;;;;;;9.10;3.50;;;;;;;21.04;42.99;99877.95;130314;1273;108934;-81
2022/09/08 14:43:40;;;;;;;7.10;4.00;;;;;;;21.05;42.98;99876.49;130086;1273;108556;-78
2022/09/08 14:46:56;;;;;;;4.20;3.40;;;;;;;21.06;43.12;99870.51;130148;1273;108834;-76
2022/09/08 14:50:25;;;;;;;6.40;3.50;;;;;;;21.07;42.65;99874.27;129976;1273;108751;-77
2022/09/08 14:53:43;;;;;;;7.50;3.80;;;;;;;21.04;42.83;99871.14;130008;1273;108953;-76
2022/09/08 14:57:11;;;;;;;7.60;4.20;;;;;;;21.01;43.03;99861.70;129942;1273;108976;-75
2022/09/08 15:00:23;;;;;;;5.30;3.50;;;;;;;20.98;42.83;99853.73;130000;1273;109010;-75
2022/09/08 15:03:33;;;;;;;5.00;3.70;;;;;;;20.94;42.62;99850.29;130083;1273;108863;-77
2022/09/08 15:06:55;;;;;;;5.80;3.80;;;;;;;20.90;42.74;99850.23;129930;1273;108951;-75